createdAt,value
2022-11-17T00:01:19.383Z,4.80
2022-11-17T00:06:39.976Z,4.76
2022-11-17T00:12:22.708Z,4.72
2022-11-17T00:17:47.830Z,4.62
2022-11-17T00:23:08.180Z,4.67
2022-11-17T00:28:28.819Z,4.60
2022-11-17T00:34:07.568Z,4.62
2022-11-17T00:39:28.065Z,4.60
2022-11-17T00:44:48.396Z,4.58
2022-11-17T00:50:09.867Z,4.56
2022-11-17T00:55:30.399Z,4.51
2022-11-17T01:00:50.774Z,4.48
2022-11-17T01:06:16.942Z,4.45
2022-11-17T01:11:37.422Z,4.40
2022-11-17T01:16:58.146Z,4.36
2022-11-17T01:22:18.627Z,4.28
2022-11-17T01:27:39.312Z,4.26
2022-11-17T01:32:59.849Z,4.22
2022-11-17T01:38:20.818Z,4.19
2022-11-17T01:43:45.155Z,4.15
2022-11-17T01:49:25.177Z,4.14
2022-11-17T01:54:47.541Z,4.11
2022-11-17T02:00:10.212Z,4.13
2022-11-17T02:05:48.972Z,4.09
2022-11-17T02:11:14.204Z,4.10
2022-11-17T02:16:34.724Z,4.09
2022-11-17T02:22:33.560Z,4.09
2022-11-17T02:28:06.604Z,4.09
2022-11-17T02:34:01.316Z,4.09
2022-11-17T02:39:48.882Z,4.11
2022-11-17T02:45:14.616Z,4.13
2022-11-17T02:50:36.923Z,4.15
2022-11-17T02:56:01.126Z,4.15
2022-11-17T03:01:35.054Z,4.15
2022-11-17T03:07:08.869Z,4.14
2022-11-17T03:12:39.477Z,4.11
2022-11-17T03:18:13.225Z,4.11
2022-11-17T03:23:44.533Z,4.09
2022-11-17T03:29:09.939Z,4.09
2022-11-17T03:34:37.255Z,4.06
2022-11-17T03:40:04.219Z,4.05
2022-11-17T03:45:28.947Z,4.03
2022-11-17T03:51:04.519Z,4.01
2022-11-17T03:56:31.245Z,4.00
2022-11-17T04:01:52.196Z,3.99
2022-11-17T04:07:12.697Z,3.99
2022-11-17T04:12:52.231Z,4.00
2022-11-17T04:18:13.870Z,4.01
2022-11-17T04:23:34.669Z,3.99
2022-11-17T04:28:55.423Z,3.95
2022-11-17T04:34:15.955Z,4.03
2022-11-17T04:39:38.904Z,4.03
2022-11-17T04:44:59.453Z,3.93
2022-11-17T04:50:20.007Z,3.85
2022-11-17T04:55:40.671Z,3.77
2022-11-17T05:01:12.468Z,3.74
2022-11-17T05:06:39.323Z,3.68
2022-11-17T05:12:18.517Z,3.65
2022-11-17T05:17:39.372Z,3.54
2022-11-17T05:23:18.805Z,3.51
2022-11-17T05:28:39.587Z,3.47
2022-11-17T05:34:01.042Z,3.47
2022-11-17T05:39:21.623Z,3.45
2022-11-17T05:44:42.223Z,3.51
2022-11-17T05:50:02.630Z,3.49
2022-11-17T05:55:23.487Z,3.51
2022-11-17T06:00:44.475Z,3.51
2022-11-17T06:06:05.477Z,3.57
2022-11-17T06:11:26.107Z,3.58
2022-11-17T06:16:49.835Z,3.44
2022-11-17T06:22:12.693Z,3.42
2022-11-17T06:27:34.248Z,3.37
2022-11-17T06:32:56.359Z,3.34
2022-11-17T06:38:16.833Z,3.37
2022-11-17T06:43:37.651Z,3.39
2022-11-17T06:48:58.643Z,3.42
2022-11-17T06:54:19.361Z,3.38
2022-11-17T06:59:39.663Z,3.43
2022-11-17T07:05:00.319Z,3.44
2022-11-17T07:10:20.739Z,3.57
2022-11-17T07:15:41.214Z,3.57
2022-11-17T07:21:06.422Z,3.54
2022-11-17T07:26:26.852Z,3.55
2022-11-17T07:31:47.306Z,3.48
2022-11-17T07:37:07.701Z,3.45
2022-11-17T07:42:27.984Z,3.45
2022-11-17T07:47:59.887Z,3.44
2022-11-17T07:53:20.380Z,3.47
2022-11-17T07:58:40.949Z,3.47
2022-11-17T08:04:01.995Z,3.53
2022-11-17T08:09:22.660Z,3.59
2022-11-17T08:14:43.144Z,3.68
2022-11-17T08:20:05.446Z,3.78
2022-11-17T08:25:28.203Z,3.93
2022-11-17T08:30:49.000Z,4.01
2022-11-17T08:36:10.107Z,4.29
2022-11-17T08:41:31.731Z,4.50
2022-11-17T08:46:52.525Z,4.43
2022-11-17T08:52:13.071Z,4.34
2022-11-17T08:57:33.637Z,4.27
2022-11-17T09:02:55.025Z,4.25
2022-11-17T09:08:44.427Z,4.33
2022-11-17T09:13:56.288Z,4.45
2022-11-17T09:19:17.334Z,4.84
2022-11-17T09:24:37.699Z,5.25
2022-11-17T09:29:59.194Z,5.53
2022-11-17T09:35:20.134Z,5.69
2022-11-17T09:40:41.641Z,5.93
2022-11-17T09:46:23.892Z,5.96
2022-11-17T09:51:47.722Z,6.15
2022-11-17T09:57:18.464Z,5.84
2022-11-17T10:02:39.558Z,5.44
2022-11-17T10:08:11.671Z,5.18
2022-11-17T10:13:36.023Z,4.99
2022-11-17T10:18:57.270Z,4.92
2022-11-17T10:24:36.912Z,4.85
2022-11-17T10:30:20.060Z,4.74
2022-11-17T10:35:40.369Z,4.50
2022-11-17T10:41:03.091Z,4.35
2022-11-17T10:46:24.220Z,4.23
2022-11-17T10:51:44.813Z,4.15
2022-11-17T10:57:18.000Z,4.09
2022-11-17T11:02:39.371Z,4.09
2022-11-17T11:08:21.237Z,4.05
2022-11-17T11:13:50.523Z,4.05
2022-11-17T11:19:15.168Z,4.02
2022-11-17T11:24:57.159Z,4.00
2022-11-17T11:30:19.393Z,4.06
2022-11-17T11:36:11.302Z,4.22
2022-11-17T11:41:42.550Z,4.28
2022-11-17T11:47:54.642Z,4.31
2022-11-17T11:53:41.694Z,4.18
2022-11-17T11:59:36.236Z,4.15
2022-11-17T12:05:16.516Z,4.09
2022-11-17T12:10:49.397Z,4.15
2022-11-17T12:16:18.211Z,4.20
2022-11-17T12:21:38.660Z,4.29
2022-11-17T12:27:36.013Z,4.29
2022-11-17T12:32:58.111Z,4.35
2022-11-17T12:38:19.884Z,4.31
2022-11-17T12:43:40.786Z,4.25
2022-11-17T12:49:19.558Z,4.25
2022-11-17T12:54:59.880Z,4.28
2022-11-17T13:00:24.432Z,4.37
2022-11-17T13:05:44.742Z,4.28
2022-11-17T13:11:14.418Z,4.29
2022-11-17T13:16:37.436Z,4.26
2022-11-17T13:22:01.020Z,4.21
2022-11-17T13:27:30.345Z,4.19
2022-11-17T13:32:51.675Z,4.18
2022-11-17T13:38:12.115Z,4.20
2022-11-17T13:43:39.330Z,4.23
2022-11-17T13:49:00.008Z,4.25
2022-11-17T13:54:22.497Z,4.22
2022-11-17T13:59:44.828Z,4.24
2022-11-17T14:05:13.334Z,4.26
2022-11-17T14:10:37.485Z,4.25
2022-11-17T14:16:00.694Z,4.28
2022-11-17T14:21:20.950Z,4.25
2022-11-17T14:26:44.672Z,4.21
2022-11-17T14:32:05.184Z,4.20
2022-11-17T14:37:32.526Z,4.18
2022-11-17T14:42:53.633Z,4.18
2022-11-17T14:48:18.832Z,4.13
2022-11-17T14:53:42.053Z,4.09
2022-11-17T14:59:02.649Z,3.98
2022-11-17T15:10:05.650Z,3.94
2022-11-17T15:15:26.991Z,3.87
2022-11-17T15:20:47.706Z,3.83
2022-11-17T15:26:14.785Z,3.88
2022-11-17T15:31:35.853Z,3.87
2022-11-17T15:36:56.536Z,3.87
2022-11-17T15:42:17.059Z,3.84
2022-11-17T15:47:37.598Z,3.79
2022-11-17T15:53:04.092Z,3.80
2022-11-17T15:58:25.357Z,3.82
2022-11-17T16:03:45.662Z,3.76
2022-11-17T16:09:06.682Z,3.68
2022-11-17T16:14:27.269Z,3.67
2022-11-17T16:19:48.427Z,3.69
2022-11-17T16:25:10.406Z,3.68
2022-11-17T16:30:35.319Z,3.66
2022-11-17T16:36:04.511Z,3.64
2022-11-17T16:41:27.916Z,3.59
2022-11-17T16:46:49.719Z,3.59
2022-11-17T16:52:10.365Z,3.61
2022-11-17T16:57:31.121Z,3.61
2022-11-17T17:02:51.605Z,3.60
2022-11-17T17:08:12.199Z,3.58
2022-11-17T17:13:33.324Z,3.59
2022-11-17T17:18:56.309Z,3.58
2022-11-17T17:24:17.028Z,3.58
2022-11-17T17:29:37.777Z,3.56
2022-11-17T17:34:58.423Z,3.55
2022-11-17T17:40:19.320Z,3.57
2022-11-17T17:45:39.667Z,3.58
2022-11-17T17:51:12.164Z,3.54
2022-11-17T17:56:34.294Z,3.55
2022-11-17T18:01:54.932Z,3.53
2022-11-17T18:07:15.355Z,3.55
2022-11-17T18:12:35.865Z,3.55
2022-11-17T18:17:56.463Z,3.55
2022-11-17T18:23:17.278Z,3.54
2022-11-17T18:28:39.490Z,3.54
2022-11-17T18:34:02.715Z,3.51
2022-11-17T18:39:23.665Z,3.54
2022-11-17T18:44:44.085Z,3.54
2022-11-17T18:50:05.023Z,3.52
2022-11-17T18:55:25.658Z,3.53
2022-11-17T19:00:46.660Z,3.52
2022-11-17T19:06:10.340Z,3.54
2022-11-17T19:11:32.817Z,3.54
2022-11-17T19:16:54.536Z,3.57
2022-11-17T19:22:15.112Z,3.56
2022-11-17T19:27:35.751Z,3.58
2022-11-17T19:32:56.939Z,3.55
2022-11-17T19:38:17.698Z,3.54
2022-11-17T19:43:45.203Z,3.55
2022-11-17T19:49:07.895Z,3.58
2022-11-17T19:54:28.350Z,3.61
2022-11-17T19:59:48.723Z,3.59
2022-11-17T20:05:10.917Z,3.59
2022-11-17T20:10:32.571Z,3.58
2022-11-17T20:15:57.113Z,3.59
2022-11-17T20:21:18.012Z,3.65
2022-11-17T20:26:40.960Z,3.61
2022-11-17T20:32:01.654Z,3.61
2022-11-17T20:37:22.683Z,3.59
2022-11-17T20:42:43.207Z,3.55
2022-11-17T20:48:04.126Z,3.55
2022-11-17T20:53:25.586Z,3.56
2022-11-17T20:58:46.101Z,3.55
2022-11-17T21:04:06.498Z,3.52
2022-11-17T21:09:27.095Z,3.54
2022-11-17T21:14:48.893Z,3.55
2022-11-17T21:20:10.880Z,3.55
2022-11-17T21:25:31.940Z,3.58
2022-11-17T21:30:52.547Z,3.60
2022-11-17T21:36:15.565Z,3.57
2022-11-17T21:41:37.807Z,3.54
2022-11-17T21:46:58.066Z,3.55
2022-11-17T21:52:18.641Z,3.53
2022-11-17T21:57:39.423Z,3.54
2022-11-17T22:02:59.861Z,3.55
2022-11-17T22:08:20.426Z,3.55
2022-11-17T22:13:41.645Z,3.57
2022-11-17T22:19:02.944Z,3.57
2022-11-17T22:24:23.457Z,3.54
2022-11-17T22:29:44.136Z,3.54
2022-11-17T22:35:04.978Z,3.55
2022-11-17T22:40:25.550Z,3.55
2022-11-17T22:45:45.746Z,3.52
2022-11-17T22:51:08.130Z,3.57
2022-11-17T22:56:28.636Z,3.55
2022-11-17T23:01:49.311Z,3.57
2022-11-17T23:07:10.252Z,3.62
2022-11-17T23:12:30.914Z,3.61
2022-11-17T23:17:51.315Z,3.63
2022-11-17T23:23:12.025Z,3.63
2022-11-17T23:28:32.706Z,3.64
2022-11-17T23:33:53.518Z,3.69
2022-11-17T23:39:13.938Z,3.67
2022-11-17T23:44:34.480Z,3.69
2022-11-17T23:49:55.116Z,3.67
2022-11-17T23:55:15.841Z,3.70
